South Easton, Massachusetts
Current Conditions -  °F | °C
As of 7:27 PM on Monday 24 Nov 2014 (Local Time) from KOWD Reporting Station
Scattered Clouds Scattered Clouds  
Wind Chill: 63°   Ceiling: Unl
Heat Index: 63°   Visibility: 10mi
Dew Point: 56°   Wind: 14mph
Humidity: 78%   Direction: 210°SSW
Pressure: 29.66"   Gusts: 23mph
Location:  42.05°N, 71.08°W
Report Text: KOWD 250027Z 21012G20KT 10SM SCT027 17/13 A2966 RMK AO2 T01720133
Loading
Personal Weather Stations






























Interactive Weather Map New forecast layout! Learn more

10-Day Weather Forecast

Advertisements
Track Severe Weather on mobile